sensor_id;sensor_type;location;lat;lon;timestamp;temperature;humidity
16287;DHT22;8251;53.568;10.018;2023-07-13T00:02:16;21.60;80.90
16287;DHT22;8251;53.568;10.018;2023-07-13T00:04:43;21.60;82.00
16287;DHT22;8251;53.568;10.018;2023-07-13T00:07:10;21.60;81.30
16287;DHT22;8251;53.568;10.018;2023-07-13T00:09:39;21.60;81.20
16287;DHT22;8251;53.568;10.018;2023-07-13T00:12:23;21.60;81.40
16287;DHT22;8251;53.568;10.018;2023-07-13T00:14:51;21.60;81.50
16287;DHT22;8251;53.568;10.018;2023-07-13T00:17:19;21.50;81.80
16287;DHT22;8251;53.568;10.018;2023-07-13T00:19:46;21.50;81.90
16287;DHT22;8251;53.568;10.018;2023-07-13T00:22:13;21.50;82.10
16287;DHT22;8251;53.568;10.018;2023-07-13T00:24:40;21.50;82.20
16287;DHT22;8251;53.568;10.018;2023-07-13T00:27:08;21.40;82.20
16287;DHT22;8251;53.568;10.018;2023-07-13T00:29:35;21.40;82.40
16287;DHT22;8251;53.568;10.018;2023-07-13T00:32:02;21.40;82.40
16287;DHT22;8251;53.568;10.018;2023-07-13T00:34:31;21.40;82.80
16287;DHT22;8251;53.568;10.018;2023-07-13T00:36:58;21.40;82.90
16287;DHT22;8251;53.568;10.018;2023-07-13T00:39:27;21.30;83.00
16287;DHT22;8251;53.568;10.018;2023-07-13T00:41:54;21.30;83.00
16287;DHT22;8251;53.568;10.018;2023-07-13T00:44:21;21.30;83.20
16287;DHT22;8251;53.568;10.018;2023-07-13T00:46:49;21.30;83.30
16287;DHT22;8251;53.568;10.018;2023-07-13T00:49:19;21.30;83.90
16287;DHT22;8251;53.568;10.018;2023-07-13T00:51:50;21.30;84.20
16287;DHT22;8251;53.568;10.018;2023-07-13T00:54:21;21.30;84.40
16287;DHT22;8251;53.568;10.018;2023-07-13T00:56:50;21.20;84.70
16287;DHT22;8251;53.568;10.018;2023-07-13T00:59:18;21.20;85.10
16287;DHT22;8251;53.568;10.018;2023-07-13T01:01:47;21.20;85.30
16287;DHT22;8251;53.568;10.018;2023-07-13T01:04:14;21.20;85.70
16287;DHT22;8251;53.568;10.018;2023-07-13T01:06:43;21.20;85.90
16287;DHT22;8251;53.568;10.018;2023-07-13T01:09:12;21.20;86.00
16287;DHT22;8251;53.568;10.018;2023-07-13T01:11:40;21.10;86.20
16287;DHT22;8251;53.568;10.018;2023-07-13T01:14:07;21.00;86.50
16287;DHT22;8251;53.568;10.018;2023-07-13T01:16:36;21.00;86.70
16287;DHT22;8251;53.568;10.018;2023-07-13T01:19:08;21.00;86.70
16287;DHT22;8251;53.568;10.018;2023-07-13T01:21:40;21.00;86.80
16287;DHT22;8251;53.568;10.018;2023-07-13T01:24:08;21.00;87.00
16287;DHT22;8251;53.568;10.018;2023-07-13T01:26:35;21.00;87.20
16287;DHT22;8251;53.568;10.018;2023-07-13T01:29:02;20.90;87.20
16287;DHT22;8251;53.568;10.018;2023-07-13T01:31:29;20.90;87.40
16287;DHT22;8251;53.568;10.018;2023-07-13T01:33:56;20.90;87.40
16287;DHT22;8251;53.568;10.018;2023-07-13T01:36:23;20.90;87.40
16287;DHT22;8251;53.568;10.018;2023-07-13T01:38:51;20.90;87.60
16287;DHT22;8251;53.568;10.018;2023-07-13T01:41:18;20.90;87.70
16287;DHT22;8251;53.568;10.018;2023-07-13T01:43:46;20.90;87.80
16287;DHT22;8251;53.568;10.018;2023-07-13T01:46:13;20.90;87.80
16287;DHT22;8251;53.568;10.018;2023-07-13T01:48:39;20.90;87.60
16287;DHT22;8251;53.568;10.018;2023-07-13T01:51:06;20.90;87.80
16287;DHT22;8251;53.568;10.018;2023-07-13T01:53:33;20.80;88.00
16287;DHT22;8251;53.568;10.018;2023-07-13T01:56:02;20.80;88.10
16287;DHT22;8251;53.568;10.018;2023-07-13T01:58:29;20.80;88.00
16287;DHT22;8251;53.568;10.018;2023-07-13T02:00:56;20.90;88.00
16287;DHT22;8251;53.568;10.018;2023-07-13T02:03:22;20.80;88.10
16287;DHT22;8251;53.568;10.018;2023-07-13T02:05:49;20.80;87.80
16287;DHT22;8251;53.568;10.018;2023-07-13T02:08:16;20.80;87.90
16287;DHT22;8251;53.568;10.018;2023-07-13T02:10:43;20.80;87.90
16287;DHT22;8251;53.568;10.018;2023-07-13T02:13:12;20.80;87.80
16287;DHT22;8251;53.568;10.018;2023-07-13T02:15:39;20.80;87.80
16287;DHT22;8251;53.568;10.018;2023-07-13T02:18:07;20.80;88.10
16287;DHT22;8251;53.568;10.018;2023-07-13T02:20:34;20.80;88.10
16287;DHT22;8251;53.568;10.018;2023-07-13T02:23:02;20.80;88.10
16287;DHT22;8251;53.568;10.018;2023-07-13T02:25:29;20.80;87.90
16287;DHT22;8251;53.568;10.018;2023-07-13T02:27:56;20.80;87.90
16287;DHT22;8251;53.568;10.018;2023-07-13T02:30:24;20.70;87.50
16287;DHT22;8251;53.568;10.018;2023-07-13T02:32:51;20.70;87.50
16287;DHT22;8251;53.568;10.018;2023-07-13T02:35:18;20.60;87.70
16287;DHT22;8251;53.568;10.018;2023-07-13T02:37:45;20.60;87.60
16287;DHT22;8251;53.568;10.018;2023-07-13T02:40:12;20.60;87.70
16287;DHT22;8251;53.568;10.018;2023-07-13T02:42:40;20.60;87.70
16287;DHT22;8251;53.568;10.018;2023-07-13T02:45:08;20.70;87.70
16287;DHT22;8251;53.568;10.018;2023-07-13T02:47:36;20.70;87.70
16287;DHT22;8251;53.568;10.018;2023-07-13T02:50:04;20.70;87.40
16287;DHT22;8251;53.568;10.018;2023-07-13T02:52:31;20.60;87.00
16287;DHT22;8251;53.568;10.018;2023-07-13T02:54:59;20.60;87.10
16287;DHT22;8251;53.568;10.018;2023-07-13T02:57:26;20.60;86.90
16287;DHT22;8251;53.568;10.018;2023-07-13T02:59:53;20.60;86.70
16287;DHT22;8251;53.568;10.018;2023-07-13T03:02:20;20.60;86.70
16287;DHT22;8251;53.568;10.018;2023-07-13T03:04:49;20.60;86.80
16287;DHT22;8251;53.568;10.018;2023-07-13T03:07:16;20.60;86.90
16287;DHT22;8251;53.568;10.018;2023-07-13T03:09:43;20.60;86.70
16287;DHT22;8251;53.568;10.018;2023-07-13T03:12:09;20.60;87.30
16287;DHT22;8251;53.568;10.018;2023-07-13T03:14:38;20.50;86.40
16287;DHT22;8251;53.568;10.018;2023-07-13T03:17:06;20.50;86.20
16287;DHT22;8251;53.568;10.018;2023-07-13T03:19:32;20.50;86.10
16287;DHT22;8251;53.568;10.018;2023-07-13T03:22:01;20.50;86.00
16287;DHT22;8251;53.568;10.018;2023-07-13T03:24:28;20.50;85.90
16287;DHT22;8251;53.568;10.018;2023-07-13T03:26:55;20.50;85.80
16287;DHT22;8251;53.568;10.018;2023-07-13T03:29:22;20.50;85.00
16287;DHT22;8251;53.568;10.018;2023-07-13T03:31:49;20.50;84.60
16287;DHT22;8251;53.568;10.018;2023-07-13T03:34:16;20.40;84.60
16287;DHT22;8251;53.568;10.018;2023-07-13T03:36:43;20.50;84.60
16287;DHT22;8251;53.568;10.018;2023-07-13T03:39:11;20.40;84.10
16287;DHT22;8251;53.568;10.018;2023-07-13T03:41:38;20.40;84.40
16287;DHT22;8251;53.568;10.018;2023-07-13T03:44:05;20.40;84.80
16287;DHT22;8251;53.568;10.018;2023-07-13T03:46:32;20.40;84.50
16287;DHT22;8251;53.568;10.018;2023-07-13T03:49:01;20.40;84.60
16287;DHT22;8251;53.568;10.018;2023-07-13T03:51:28;20.40;84.60
16287;DHT22;8251;53.568;10.018;2023-07-13T03:53:55;20.40;84.00
16287;DHT22;8251;53.568;10.018;2023-07-13T03:56:23;20.30;83.60
16287;DHT22;8251;53.568;10.018;2023-07-13T03:58:51;20.20;83.90
16287;DHT22;8251;53.568;10.018;2023-07-13T04:01:20;20.20;84.20
16287;DHT22;8251;53.568;10.018;2023-07-13T04:03:47;20.30;85.40
16287;DHT22;8251;53.568;10.018;2023-07-13T04:06:16;20.30;84.70
16287;DHT22;8251;53.568;10.018;2023-07-13T04:08:47;20.30;84.60
16287;DHT22;8251;53.568;10.018;2023-07-13T04:11:16;20.40;84.60
16287;DHT22;8251;53.568;10.018;2023-07-13T04:13:44;20.40;84.20
16287;DHT22;8251;53.568;10.018;2023-07-13T04:16:11;20.40;83.50
16287;DHT22;8251;53.568;10.018;2023-07-13T04:18:38;20.50;83.30
16287;DHT22;8251;53.568;10.018;2023-07-13T04:21:05;20.50;83.20
16287;DHT22;8251;53.568;10.018;2023-07-13T04:23:32;20.50;82.70
16287;DHT22;8251;53.568;10.018;2023-07-13T04:25:59;20.50;82.40
16287;DHT22;8251;53.568;10.018;2023-07-13T04:28:26;20.50;82.10
16287;DHT22;8251;53.568;10.018;2023-07-13T04:30:55;20.60;81.90
16287;DHT22;8251;53.568;10.018;2023-07-13T04:33:22;20.60;81.70
16287;DHT22;8251;53.568;10.018;2023-07-13T04:35:50;20.60;81.90
16287;DHT22;8251;53.568;10.018;2023-07-13T04:38:24;20.60;81.90
16287;DHT22;8251;53.568;10.018;2023-07-13T04:40:57;20.60;82.10
16287;DHT22;8251;53.568;10.018;2023-07-13T04:43:27;20.60;82.20
16287;DHT22;8251;53.568;10.018;2023-07-13T04:45:55;20.70;82.30
16287;DHT22;8251;53.568;10.018;2023-07-13T04:48:23;20.70;82.60
16287;DHT22;8251;53.568;10.018;2023-07-13T04:50:54;20.80;83.20
16287;DHT22;8251;53.568;10.018;2023-07-13T04:53:22;20.80;83.30
16287;DHT22;8251;53.568;10.018;2023-07-13T04:55:49;20.80;83.10
16287;DHT22;8251;53.568;10.018;2023-07-13T04:58:16;20.80;84.20
16287;DHT22;8251;53.568;10.018;2023-07-13T05:00:43;20.90;83.40
16287;DHT22;8251;53.568;10.018;2023-07-13T05:03:12;20.90;83.20
16287;DHT22;8251;53.568;10.018;2023-07-13T05:05:39;20.90;83.00
16287;DHT22;8251;53.568;10.018;2023-07-13T05:08:06;20.90;83.10
16287;DHT22;8251;53.568;10.018;2023-07-13T05:10:34;20.90;83.20
16287;DHT22;8251;53.568;10.018;2023-07-13T05:13:01;21.00;83.00
16287;DHT22;8251;53.568;10.018;2023-07-13T05:15:28;20.90;82.40
16287;DHT22;8251;53.568;10.018;2023-07-13T05:17:55;20.90;82.60
16287;DHT22;8251;53.568;10.018;2023-07-13T05:20:23;20.90;83.00
16287;DHT22;8251;53.568;10.018;2023-07-13T05:22:50;21.00;83.10
16287;DHT22;8251;53.568;10.018;2023-07-13T05:25:17;21.10;83.30
16287;DHT22;8251;53.568;10.018;2023-07-13T05:27:44;21.10;83.30
16287;DHT22;8251;53.568;10.018;2023-07-13T05:30:13;21.10;82.60
16287;DHT22;8251;53.568;10.018;2023-07-13T05:32:40;21.20;82.80
16287;DHT22;8251;53.568;10.018;2023-07-13T05:35:07;21.30;82.90
16287;DHT22;8251;53.568;10.018;2023-07-13T05:37:37;21.40;83.30
16287;DHT22;8251;53.568;10.018;2023-07-13T05:40:04;21.40;83.10
16287;DHT22;8251;53.568;10.018;2023-07-13T05:42:31;21.30;82.80
16287;DHT22;8251;53.568;10.018;2023-07-13T05:44:58;21.30;83.00
16287;DHT22;8251;53.568;10.018;2023-07-13T05:47:25;21.30;82.80
16287;DHT22;8251;53.568;10.018;2023-07-13T05:49:52;21.30;82.80
16287;DHT22;8251;53.568;10.018;2023-07-13T05:52:19;21.30;83.00
16287;DHT22;8251;53.568;10.018;2023-07-13T05:54:47;21.30;83.40
16287;DHT22;8251;53.568;10.018;2023-07-13T05:57:14;21.30;83.40
16287;DHT22;8251;53.568;10.018;2023-07-13T05:59:41;21.30;83.70
16287;DHT22;8251;53.568;10.018;2023-07-13T06:02:09;21.30;83.90
16287;DHT22;8251;53.568;10.018;2023-07-13T06:04:36;21.30;84.30
16287;DHT22;8251;53.568;10.018;2023-07-13T06:07:03;21.30;84.10
16287;DHT22;8251;53.568;10.018;2023-07-13T06:09:31;21.30;84.20
16287;DHT22;8251;53.568;10.018;2023-07-13T06:11:59;21.30;84.20
16287;DHT22;8251;53.568;10.018;2023-07-13T06:14:26;21.40;84.10
16287;DHT22;8251;53.568;10.018;2023-07-13T06:16:53;21.40;83.70
16287;DHT22;8251;53.568;10.018;2023-07-13T06:19:20;21.40;83.80
16287;DHT22;8251;53.568;10.018;2023-07-13T06:21:47;21.40;83.70
16287;DHT22;8251;53.568;10.018;2023-07-13T06:24:15;21.50;83.70
16287;DHT22;8251;53.568;10.018;2023-07-13T06:26:42;21.40;83.50
16287;DHT22;8251;53.568;10.018;2023-07-13T06:29:10;21.50;83.50
16287;DHT22;8251;53.568;10.018;2023-07-13T06:31:37;21.40;83.00
16287;DHT22;8251;53.568;10.018;2023-07-13T06:34:04;21.50;83.60
16287;DHT22;8251;53.568;10.018;2023-07-13T06:36:32;21.50;83.70
16287;DHT22;8251;53.568;10.018;2023-07-13T06:38:59;21.50;83.90
16287;DHT22;8251;53.568;10.018;2023-07-13T06:41:25;21.50;83.70
16287;DHT22;8251;53.568;10.018;2023-07-13T06:43:52;21.60;83.70
16287;DHT22;8251;53.568;10.018;2023-07-13T06:46:22;21.60;83.60
16287;DHT22;8251;53.568;10.018;2023-07-13T06:48:49;21.60;82.90
16287;DHT22;8251;53.568;10.018;2023-07-13T06:51:16;21.60;82.90
16287;DHT22;8251;53.568;10.018;2023-07-13T06:53:43;21.60;82.80
16287;DHT22;8251;53.568;10.018;2023-07-13T06:56:14;21.70;82.30
16287;DHT22;8251;53.568;10.018;2023-07-13T06:58:42;21.70;82.70
16287;DHT22;8251;53.568;10.018;2023-07-13T07:01:09;21.70;82.90
16287;DHT22;8251;53.568;10.018;2023-07-13T07:03:38;21.70;82.50
16287;DHT22;8251;53.568;10.018;2023-07-13T07:06:14;21.80;82.90
16287;DHT22;8251;53.568;10.018;2023-07-13T07:08:42;21.80;82.70
16287;DHT22;8251;53.568;10.018;2023-07-13T07:11:12;21.90;82.40
16287;DHT22;8251;53.568;10.018;2023-07-13T07:13:40;21.90;82.40
16287;DHT22;8251;53.568;10.018;2023-07-13T07:16:07;22.00;82.70
16287;DHT22;8251;53.568;10.018;2023-07-13T07:18:34;22.10;82.30
16287;DHT22;8251;53.568;10.018;2023-07-13T07:21:03;22.10;81.70
16287;DHT22;8251;53.568;10.018;2023-07-13T07:23:33;22.20;82.10
16287;DHT22;8251;53.568;10.018;2023-07-13T07:26:03;22.20;81.90
16287;DHT22;8251;53.568;10.018;2023-07-13T07:28:34;22.20;81.70
16287;DHT22;8251;53.568;10.018;2023-07-13T07:31:01;22.30;81.90
16287;DHT22;8251;53.568;10.018;2023-07-13T07:33:28;22.30;81.70
16287;DHT22;8251;53.568;10.018;2023-07-13T07:35:55;22.40;82.10
16287;DHT22;8251;53.568;10.018;2023-07-13T07:38:23;22.40;81.30
16287;DHT22;8251;53.568;10.018;2023-07-13T07:40:50;22.50;81.20
16287;DHT22;8251;53.568;10.018;2023-07-13T07:43:17;22.60;81.30
16287;DHT22;8251;53.568;10.018;2023-07-13T07:45:45;22.70;80.80
16287;DHT22;8251;53.568;10.018;2023-07-13T07:48:12;22.70;80.70
16287;DHT22;8251;53.568;10.018;2023-07-13T07:50:39;22.80;80.60
16287;DHT22;8251;53.568;10.018;2023-07-13T07:53:06;22.90;80.20
16287;DHT22;8251;53.568;10.018;2023-07-13T07:55:37;22.90;80.00
16287;DHT22;8251;53.568;10.018;2023-07-13T07:58:04;23.00;79.60
16287;DHT22;8251;53.568;10.018;2023-07-13T08:00:32;23.10;79.50
16287;DHT22;8251;53.568;10.018;2023-07-13T08:02:59;23.20;79.90
16287;DHT22;8251;53.568;10.018;2023-07-13T08:05:26;23.30;79.50
16287;DHT22;8251;53.568;10.018;2023-07-13T08:07:53;23.40;78.10
16287;DHT22;8251;53.568;10.018;2023-07-13T08:10:20;23.50;78.30
16287;DHT22;8251;53.568;10.018;2023-07-13T08:12:48;23.60;78.80
16287;DHT22;8251;53.568;10.018;2023-07-13T08:15:16;23.80;78.70
16287;DHT22;8251;53.568;10.018;2023-07-13T08:17:46;24.00;77.90
16287;DHT22;8251;53.568;10.018;2023-07-13T08:20:13;24.20;77.10
16287;DHT22;8251;53.568;10.018;2023-07-13T08:22:40;24.30;75.90
16287;DHT22;8251;53.568;10.018;2023-07-13T08:25:08;24.50;75.20
16287;DHT22;8251;53.568;10.018;2023-07-13T08:27:34;24.70;74.40
16287;DHT22;8251;53.568;10.018;2023-07-13T08:30:04;24.90;73.80
16287;DHT22;8251;53.568;10.018;2023-07-13T08:32:31;25.00;73.30
16287;DHT22;8251;53.568;10.018;2023-07-13T08:34:58;25.20;73.30
16287;DHT22;8251;53.568;10.018;2023-07-13T08:37:25;25.40;73.10
16287;DHT22;8251;53.568;10.018;2023-07-13T08:39:52;25.60;71.50
16287;DHT22;8251;53.568;10.018;2023-07-13T08:42:30;25.80;70.00
16287;DHT22;8251;53.568;10.018;2023-07-13T08:45:08;26.00;69.90
16287;DHT22;8251;53.568;10.018;2023-07-13T08:47:40;26.00;69.30
16287;DHT22;8251;53.568;10.018;2023-07-13T08:50:13;25.90;68.60
16287;DHT22;8251;53.568;10.018;2023-07-13T08:52:42;25.70;68.90
16287;DHT22;8251;53.568;10.018;2023-07-13T08:55:13;25.60;69.50
16287;DHT22;8251;53.568;10.018;2023-07-13T08:57:43;25.40;69.90
16287;DHT22;8251;53.568;10.018;2023-07-13T09:00:14;25.50;70.40
16287;DHT22;8251;53.568;10.018;2023-07-13T09:02:46;25.60;68.90
16287;DHT22;8251;53.568;10.018;2023-07-13T09:05:15;25.90;68.40
16287;DHT22;8251;53.568;10.018;2023-07-13T09:08:07;26.40;66.70
16287;DHT22;8251;53.568;10.018;2023-07-13T09:10:41;26.90;64.80
16287;DHT22;8251;53.568;10.018;2023-07-13T09:13:19;27.30;63.70
16287;DHT22;8251;53.568;10.018;2023-07-13T09:15:50;27.50;61.10
16287;DHT22;8251;53.568;10.018;2023-07-13T09:18:25;27.50;62.10
16287;DHT22;8251;53.568;10.018;2023-07-13T09:20:55;27.50;61.90
16287;DHT22;8251;53.568;10.018;2023-07-13T09:23:25;27.30;61.10
16287;DHT22;8251;53.568;10.018;2023-07-13T09:26:02;27.10;61.20
16287;DHT22;8251;53.568;10.018;2023-07-13T09:28:34;27.10;61.80
16287;DHT22;8251;53.568;10.018;2023-07-13T09:31:09;27.00;61.70
16287;DHT22;8251;53.568;10.018;2023-07-13T09:33:38;27.00;61.00
16287;DHT22;8251;53.568;10.018;2023-07-13T09:36:19;27.00;61.40
16287;DHT22;8251;53.568;10.018;2023-07-13T09:38:47;27.20;61.00
16287;DHT22;8251;53.568;10.018;2023-07-13T09:41:21;27.40;61.20
16287;DHT22;8251;53.568;10.018;2023-07-13T09:44:07;27.60;61.10
16287;DHT22;8251;53.568;10.018;2023-07-13T09:46:43;27.80;59.80
16287;DHT22;8251;53.568;10.018;2023-07-13T09:49:15;27.90;58.90
16287;DHT22;8251;53.568;10.018;2023-07-13T09:51:48;28.10;59.30
16287;DHT22;8251;53.568;10.018;2023-07-13T09:54:21;28.30;58.50
16287;DHT22;8251;53.568;10.018;2023-07-13T09:56:54;28.50;58.20
16287;DHT22;8251;53.568;10.018;2023-07-13T09:59:24;28.50;57.90
16287;DHT22;8251;53.568;10.018;2023-07-13T10:01:52;28.50;58.00
16287;DHT22;8251;53.568;10.018;2023-07-13T10:04:22;28.60;57.30
16287;DHT22;8251;53.568;10.018;2023-07-13T10:06:49;28.50;57.20
16287;DHT22;8251;53.568;10.018;2023-07-13T10:09:31;28.40;56.60
16287;DHT22;8251;53.568;10.018;2023-07-13T10:11:58;28.10;56.50
16287;DHT22;8251;53.568;10.018;2023-07-13T10:14:25;27.80;56.50
16287;DHT22;8251;53.568;10.018;2023-07-13T10:17:00;27.50;57.40
16287;DHT22;8251;53.568;10.018;2023-07-13T10:19:34;27.30;57.90
16287;DHT22;8251;53.568;10.018;2023-07-13T10:22:19;27.20;57.30
16287;DHT22;8251;53.568;10.018;2023-07-13T10:24:53;27.40;57.80
16287;DHT22;8251;53.568;10.018;2023-07-13T10:27:27;27.70;58.00
16287;DHT22;8251;53.568;10.018;2023-07-13T10:30:02;28.20;57.40
16287;DHT22;8251;53.568;10.018;2023-07-13T10:32:36;28.60;56.30
16287;DHT22;8251;53.568;10.018;2023-07-13T10:35:03;28.90;55.30
16287;DHT22;8251;53.568;10.018;2023-07-13T10:37:38;29.10;55.20
16287;DHT22;8251;53.568;10.018;2023-07-13T10:40:13;29.30;54.20
16287;DHT22;8251;53.568;10.018;2023-07-13T10:42:43;29.70;52.90
16287;DHT22;8251;53.568;10.018;2023-07-13T10:45:14;29.90;52.90
16287;DHT22;8251;53.568;10.018;2023-07-13T10:47:43;30.20;51.70
16287;DHT22;8251;53.568;10.018;2023-07-13T10:50:17;30.50;50.20
16287;DHT22;8251;53.568;10.018;2023-07-13T10:52:47;30.70;51.40
16287;DHT22;8251;53.568;10.018;2023-07-13T10:55:36;31.00;51.00
16287;DHT22;8251;53.568;10.018;2023-07-13T10:58:13;31.40;48.80
16287;DHT22;8251;53.568;10.018;2023-07-13T11:00:47;31.60;48.30
16287;DHT22;8251;53.568;10.018;2023-07-13T11:03:18;31.30;48.10
16287;DHT22;8251;53.568;10.018;2023-07-13T11:05:49;30.70;49.50
16287;DHT22;8251;53.568;10.018;2023-07-13T11:08:20;30.60;49.40
16287;DHT22;8251;53.568;10.018;2023-07-13T11:10:52;30.60;48.20
16287;DHT22;8251;53.568;10.018;2023-07-13T11:16:46;31.00;49.20
16287;DHT22;8251;53.568;10.018;2023-07-13T11:22:23;31.40;48.30
16287;DHT22;8251;53.568;10.018;2023-07-13T11:24:59;31.50;48.60
16287;DHT22;8251;53.568;10.018;2023-07-13T11:27:42;31.70;47.90
16287;DHT22;8251;53.568;10.018;2023-07-13T11:30:32;31.80;45.30
16287;DHT22;8251;53.568;10.018;2023-07-13T11:33:11;31.80;46.30
16287;DHT22;8251;53.568;10.018;2023-07-13T11:35:45;31.70;46.20
16287;DHT22;8251;53.568;10.018;2023-07-13T11:38:17;31.50;47.20
16287;DHT22;8251;53.568;10.018;2023-07-13T11:40:46;31.40;46.10
16287;DHT22;8251;53.568;10.018;2023-07-13T11:43:14;31.40;46.90
16287;DHT22;8251;53.568;10.018;2023-07-13T11:45:42;31.30;47.10
16287;DHT22;8251;53.568;10.018;2023-07-13T11:48:19;31.30;46.40
16287;DHT22;8251;53.568;10.018;2023-07-13T11:50:54;31.10;46.80
16287;DHT22;8251;53.568;10.018;2023-07-13T11:53:26;30.80;46.80
16287;DHT22;8251;53.568;10.018;2023-07-13T11:55:53;30.60;47.20
16287;DHT22;8251;53.568;10.018;2023-07-13T11:58:23;30.30;47.20
16287;DHT22;8251;53.568;10.018;2023-07-13T12:00:52;30.00;47.20
16287;DHT22;8251;53.568;10.018;2023-07-13T12:03:21;29.60;48.30
16287;DHT22;8251;53.568;10.018;2023-07-13T12:06:00;29.30;48.40
16287;DHT22;8251;53.568;10.018;2023-07-13T12:08:29;29.10;49.60
16287;DHT22;8251;53.568;10.018;2023-07-13T12:10:59;28.80;50.60
16287;DHT22;8251;53.568;10.018;2023-07-13T12:13:27;28.60;51.10
16287;DHT22;8251;53.568;10.018;2023-07-13T12:15:57;28.40;51.90
16287;DHT22;8251;53.568;10.018;2023-07-13T12:18:30;28.20;51.90
16287;DHT22;8251;53.568;10.018;2023-07-13T12:20:59;28.00;51.90
16287;DHT22;8251;53.568;10.018;2023-07-13T12:23:31;27.50;56.30
16287;DHT22;8251;53.568;10.018;2023-07-13T12:26:01;27.00;60.90
16287;DHT22;8251;53.568;10.018;2023-07-13T12:28:33;26.40;61.40
16287;DHT22;8251;53.568;10.018;2023-07-13T12:31:02;26.00;62.70
16287;DHT22;8251;53.568;10.018;2023-07-13T12:33:30;25.50;64.70
16287;DHT22;8251;53.568;10.018;2023-07-13T12:36:01;25.20;65.80
16287;DHT22;8251;53.568;10.018;2023-07-13T12:38:30;24.90;66.10
16287;DHT22;8251;53.568;10.018;2023-07-13T12:40:57;24.70;68.60
16287;DHT22;8251;53.568;10.018;2023-07-13T12:43:25;24.50;70.70
16287;DHT22;8251;53.568;10.018;2023-07-13T12:45:58;24.40;71.10
16287;DHT22;8251;53.568;10.018;2023-07-13T12:48:25;24.30;72.60
16287;DHT22;8251;53.568;10.018;2023-07-13T12:50:54;24.10;73.30
16287;DHT22;8251;53.568;10.018;2023-07-13T12:53:23;24.10;74.70
16287;DHT22;8251;53.568;10.018;2023-07-13T12:55:55;24.10;76.10
16287;DHT22;8251;53.568;10.018;2023-07-13T12:58:26;24.20;76.60
16287;DHT22;8251;53.568;10.018;2023-07-13T13:00:55;24.20;77.00
16287;DHT22;8251;53.568;10.018;2023-07-13T13:03:27;24.30;77.70
16287;DHT22;8251;53.568;10.018;2023-07-13T13:05:58;24.20;77.10
16287;DHT22;8251;53.568;10.018;2023-07-13T13:08:26;24.10;76.50
16287;DHT22;8251;53.568;10.018;2023-07-13T13:10:54;24.00;76.70
16287;DHT22;8251;53.568;10.018;2023-07-13T13:13:21;23.90;76.70
16287;DHT22;8251;53.568;10.018;2023-07-13T13:15:48;23.80;77.10
16287;DHT22;8251;53.568;10.018;2023-07-13T13:18:16;23.70;75.30
16287;DHT22;8251;53.568;10.018;2023-07-13T13:20:45;23.60;76.50
16287;DHT22;8251;53.568;10.018;2023-07-13T13:23:13;23.60;77.00
16287;DHT22;8251;53.568;10.018;2023-07-13T13:25:43;23.50;77.20
16287;DHT22;8251;53.568;10.018;2023-07-13T13:28:17;23.60;78.20
16287;DHT22;8251;53.568;10.018;2023-07-13T13:30:45;23.60;78.10
16287;DHT22;8251;53.568;10.018;2023-07-13T13:33:14;23.70;77.10
16287;DHT22;8251;53.568;10.018;2023-07-13T13:35:42;23.70;77.80
16287;DHT22;8251;53.568;10.018;2023-07-13T13:38:11;23.70;78.40
16287;DHT22;8251;53.568;10.018;2023-07-13T13:40:40;23.80;78.70
16287;DHT22;8251;53.568;10.018;2023-07-13T13:43:16;23.80;78.60
16287;DHT22;8251;53.568;10.018;2023-07-13T13:45:43;23.90;77.00
16287;DHT22;8251;53.568;10.018;2023-07-13T13:48:15;23.90;76.80
16287;DHT22;8251;53.568;10.018;2023-07-13T13:50:45;23.90;75.90
16287;DHT22;8251;53.568;10.018;2023-07-13T13:53:12;23.90;75.80
16287;DHT22;8251;53.568;10.018;2023-07-13T13:55:40;23.90;77.40
16287;DHT22;8251;53.568;10.018;2023-07-13T13:58:09;23.90;76.50
16287;DHT22;8251;53.568;10.018;2023-07-13T14:00:37;23.90;74.10
16287;DHT22;8251;53.568;10.018;2023-07-13T14:03:05;23.80;73.20
16287;DHT22;8251;53.568;10.018;2023-07-13T14:05:33;23.80;73.90
16287;DHT22;8251;53.568;10.018;2023-07-13T14:08:00;23.70;73.70
16287;DHT22;8251;53.568;10.018;2023-07-13T14:10:27;23.70;73.90
16287;DHT22;8251;53.568;10.018;2023-07-13T14:12:56;23.70;74.30
16287;DHT22;8251;53.568;10.018;2023-07-13T14:15:26;23.70;73.20
16287;DHT22;8251;53.568;10.018;2023-07-13T14:17:55;23.70;73.40
16287;DHT22;8251;53.568;10.018;2023-07-13T14:20:24;23.80;74.70
16287;DHT22;8251;53.568;10.018;2023-07-13T14:22:52;23.80;73.70
16287;DHT22;8251;53.568;10.018;2023-07-13T14:25:21;23.90;73.50
16287;DHT22;8251;53.568;10.018;2023-07-13T14:27:51;23.90;73.00
16287;DHT22;8251;53.568;10.018;2023-07-13T14:30:22;24.00;72.70
16287;DHT22;8251;53.568;10.018;2023-07-13T14:32:49;24.00;72.70
16287;DHT22;8251;53.568;10.018;2023-07-13T14:35:19;24.00;72.50
16287;DHT22;8251;53.568;10.018;2023-07-13T14:37:47;24.00;72.80
16287;DHT22;8251;53.568;10.018;2023-07-13T14:40:16;24.00;72.50
16287;DHT22;8251;53.568;10.018;2023-07-13T14:42:43;24.10;73.20
16287;DHT22;8251;53.568;10.018;2023-07-13T14:45:14;24.20;72.70
16287;DHT22;8251;53.568;10.018;2023-07-13T14:47:42;24.30;71.80
16287;DHT22;8251;53.568;10.018;2023-07-13T14:50:14;24.40;70.90
16287;DHT22;8251;53.568;10.018;2023-07-13T14:52:45;24.30;71.40
16287;DHT22;8251;53.568;10.018;2023-07-13T14:55:14;24.30;71.90
16287;DHT22;8251;53.568;10.018;2023-07-13T14:57:41;24.30;72.10
16287;DHT22;8251;53.568;10.018;2023-07-13T15:00:19;24.30;72.30
16287;DHT22;8251;53.568;10.018;2023-07-13T15:02:50;24.30;72.50
16287;DHT22;8251;53.568;10.018;2023-07-13T15:05:18;24.20;72.00
16287;DHT22;8251;53.568;10.018;2023-07-13T15:07:48;24.20;72.60
16287;DHT22;8251;53.568;10.018;2023-07-13T15:10:17;24.20;73.30
16287;DHT22;8251;53.568;10.018;2023-07-13T15:12:45;24.20;73.00
16287;DHT22;8251;53.568;10.018;2023-07-13T15:15:13;24.20;73.80
16287;DHT22;8251;53.568;10.018;2023-07-13T15:17:41;24.30;74.20
16287;DHT22;8251;53.568;10.018;2023-07-13T15:20:19;24.40;73.90
16287;DHT22;8251;53.568;10.018;2023-07-13T15:22:49;24.50;72.70
16287;DHT22;8251;53.568;10.018;2023-07-13T15:25:18;24.50;72.60
16287;DHT22;8251;53.568;10.018;2023-07-13T15:27:46;24.50;72.50
16287;DHT22;8251;53.568;10.018;2023-07-13T15:30:16;24.50;72.30
16287;DHT22;8251;53.568;10.018;2023-07-13T15:32:43;24.50;72.50
16287;DHT22;8251;53.568;10.018;2023-07-13T15:35:14;24.40;71.30
16287;DHT22;8251;53.568;10.018;2023-07-13T15:37:41;24.40;70.40
16287;DHT22;8251;53.568;10.018;2023-07-13T15:40:11;24.30;69.90
16287;DHT22;8251;53.568;10.018;2023-07-13T15:42:39;24.30;69.40
16287;DHT22;8251;53.568;10.018;2023-07-13T15:45:15;24.30;68.90
16287;DHT22;8251;53.568;10.018;2023-07-13T15:47:44;24.30;69.30
16287;DHT22;8251;53.568;10.018;2023-07-13T15:50:15;24.20;70.00